sensor_id;sensor_type;location;lat;lon;timestamp;P1;durP1;ratioP1;P2;durP2;ratioP2
71462;SDS011;59266;52.608;13.260;2022-11-03T00:02:00;16.02;;;5.28;;
71462;SDS011;59266;52.608;13.260;2022-11-03T00:04:27;12.95;;;4.82;;
71462;SDS011;59266;52.608;13.260;2022-11-03T00:06:54;17.20;;;5.15;;
71462;SDS011;59266;52.608;13.260;2022-11-03T00:09:21;13.80;;;4.70;;
71462;SDS011;59266;52.608;13.260;2022-11-03T00:11:49;15.57;;;5.38;;
71462;SDS011;59266;52.608;13.260;2022-11-03T00:14:16;13.18;;;4.57;;
71462;SDS011;59266;52.608;13.260;2022-11-03T00:16:44;12.32;;;4.85;;
71462;SDS011;59266;52.608;13.260;2022-11-03T00:19:10;16.58;;;5.05;;
71462;SDS011;59266;52.608;13.260;2022-11-03T00:21:38;16.15;;;4.53;;
71462;SDS011;59266;52.608;13.260;2022-11-03T00:24:05;13.65;;;4.90;;
71462;SDS011;59266;52.608;13.260;2022-11-03T00:26:33;15.63;;;4.88;;
71462;SDS011;59266;52.608;13.260;2022-11-03T00:29:04;15.05;;;5.00;;
71462;SDS011;59266;52.608;13.260;2022-11-03T00:31:34;13.23;;;5.15;;
71462;SDS011;59266;52.608;13.260;2022-11-03T00:34:01;16.35;;;4.97;;
71462;SDS011;59266;52.608;13.260;2022-11-03T00:36:29;16.88;;;5.10;;
71462;SDS011;59266;52.608;13.260;2022-11-03T00:38:58;18.27;;;4.78;;
71462;SDS011;59266;52.608;13.260;2022-11-03T00:41:25;19.70;;;4.95;;
71462;SDS011;59266;52.608;13.260;2022-11-03T00:43:52;14.52;;;5.43;;
71462;SDS011;59266;52.608;13.260;2022-11-03T00:46:19;14.85;;;5.40;;
71462;SDS011;59266;52.608;13.260;2022-11-03T00:48:47;18.85;;;5.97;;
71462;SDS011;59266;52.608;13.260;2022-11-03T00:51:21;17.30;;;5.60;;
71462;SDS011;59266;52.608;13.260;2022-11-03T00:53:53;15.02;;;4.68;;
71462;SDS011;59266;52.608;13.260;2022-11-03T00:58:47;15.05;;;4.88;;
71462;SDS011;59266;52.608;13.260;2022-11-03T01:01:15;20.00;;;5.90;;
71462;SDS011;59266;52.608;13.260;2022-11-03T01:03:45;19.05;;;5.50;;
71462;SDS011;59266;52.608;13.260;2022-11-03T01:06:32;18.23;;;5.25;;
71462;SDS011;59266;52.608;13.260;2022-11-03T01:09:25;14.23;;;5.32;;
71462;SDS011;59266;52.608;13.260;2022-11-03T01:11:58;16.80;;;5.57;;
71462;SDS011;59266;52.608;13.260;2022-11-03T01:14:28;21.05;;;5.45;;
71462;SDS011;59266;52.608;13.260;2022-11-03T01:16:57;17.63;;;5.80;;
71462;SDS011;59266;52.608;13.260;2022-11-03T01:19:24;14.77;;;5.38;;
71462;SDS011;59266;52.608;13.260;2022-11-03T01:21:51;15.55;;;5.20;;
71462;SDS011;59266;52.608;13.260;2022-11-03T01:24:18;15.77;;;5.45;;
71462;SDS011;59266;52.608;13.260;2022-11-03T01:26:45;17.33;;;5.55;;
71462;SDS011;59266;52.608;13.260;2022-11-03T01:29:11;20.17;;;6.35;;
71462;SDS011;59266;52.608;13.260;2022-11-03T01:31:38;18.40;;;6.20;;
71462;SDS011;59266;52.608;13.260;2022-11-03T01:34:05;15.68;;;5.20;;
71462;SDS011;59266;52.608;13.260;2022-11-03T01:36:31;17.83;;;5.97;;
71462;SDS011;59266;52.608;13.260;2022-11-03T01:38:58;17.50;;;5.85;;
71462;SDS011;59266;52.608;13.260;2022-11-03T01:41:25;15.55;;;5.63;;
71462;SDS011;59266;52.608;13.260;2022-11-03T01:46:32;21.40;;;5.82;;
71462;SDS011;59266;52.608;13.260;2022-11-03T01:49:04;15.23;;;5.30;;
71462;SDS011;59266;52.608;13.260;2022-11-03T01:51:45;21.45;;;6.13;;
71462;SDS011;59266;52.608;13.260;2022-11-03T01:54:18;15.73;;;5.35;;
71462;SDS011;59266;52.608;13.260;2022-11-03T01:56:48;18.42;;;5.35;;
71462;SDS011;59266;52.608;13.260;2022-11-03T01:59:17;16.52;;;5.40;;
71462;SDS011;59266;52.608;13.260;2022-11-03T02:01:45;17.83;;;5.43;;
71462;SDS011;59266;52.608;13.260;2022-11-03T02:04:21;19.70;;;5.60;;
71462;SDS011;59266;52.608;13.260;2022-11-03T02:06:57;23.27;;;5.13;;
71462;SDS011;59266;52.608;13.260;2022-11-03T02:09:45;17.58;;;4.55;;
71462;SDS011;59266;52.608;13.260;2022-11-03T02:12:12;15.82;;;4.57;;
71462;SDS011;59266;52.608;13.260;2022-11-03T02:14:42;14.63;;;5.20;;
71462;SDS011;59266;52.608;13.260;2022-11-03T02:17:14;17.10;;;5.03;;
71462;SDS011;59266;52.608;13.260;2022-11-03T02:27:54;12.25;;;4.38;;
71462;SDS011;59266;52.608;13.260;2022-11-03T02:30:20;14.80;;;4.18;;
71462;SDS011;59266;52.608;13.260;2022-11-03T02:35:28;17.70;;;4.18;;
71462;SDS011;59266;52.608;13.260;2022-11-03T02:38:00;18.25;;;4.25;;
71462;SDS011;59266;52.608;13.260;2022-11-03T02:40:32;17.73;;;4.57;;
71462;SDS011;59266;52.608;13.260;2022-11-03T02:43:04;13.98;;;4.95;;
71462;SDS011;59266;52.608;13.260;2022-11-03T02:45:31;14.85;;;3.80;;
71462;SDS011;59266;52.608;13.260;2022-11-03T02:47:58;18.13;;;4.07;;
71462;SDS011;59266;52.608;13.260;2022-11-03T02:50:27;15.15;;;3.83;;
71462;SDS011;59266;52.608;13.260;2022-11-03T02:52:57;10.18;;;3.42;;
71462;SDS011;59266;52.608;13.260;2022-11-03T02:55:30;15.15;;;4.40;;
71462;SDS011;59266;52.608;13.260;2022-11-03T02:58:05;12.90;;;3.85;;
71462;SDS011;59266;52.608;13.260;2022-11-03T03:03:36;13.38;;;4.03;;
71462;SDS011;59266;52.608;13.260;2022-11-03T03:06:07;13.27;;;3.90;;
71462;SDS011;59266;52.608;13.260;2022-11-03T03:08:37;14.73;;;3.83;;
71462;SDS011;59266;52.608;13.260;2022-11-03T03:11:10;12.48;;;4.00;;
71462;SDS011;59266;52.608;13.260;2022-11-03T03:13:38;15.40;;;3.60;;
71462;SDS011;59266;52.608;13.260;2022-11-03T03:16:11;9.90;;;3.28;;
71462;SDS011;59266;52.608;13.260;2022-11-03T03:18:55;12.35;;;3.40;;
71462;SDS011;59266;52.608;13.260;2022-11-03T03:21:46;10.60;;;3.30;;
71462;SDS011;59266;52.608;13.260;2022-11-03T03:24:22;11.93;;;3.50;;
71462;SDS011;59266;52.608;13.260;2022-11-03T03:27:05;17.75;;;4.13;;
71462;SDS011;59266;52.608;13.260;2022-11-03T03:29:36;10.70;;;3.55;;
71462;SDS011;59266;52.608;13.260;2022-11-03T03:32:07;10.88;;;3.22;;
71462;SDS011;59266;52.608;13.260;2022-11-03T03:34:36;10.25;;;3.67;;
71462;SDS011;59266;52.608;13.260;2022-11-03T03:37:06;11.75;;;3.58;;
71462;SDS011;59266;52.608;13.260;2022-11-03T03:39:37;11.95;;;3.63;;
71462;SDS011;59266;52.608;13.260;2022-11-03T03:42:07;10.95;;;3.58;;
71462;SDS011;59266;52.608;13.260;2022-11-03T03:44:35;14.55;;;3.72;;
71462;SDS011;59266;52.608;13.260;2022-11-03T03:47:06;11.05;;;3.53;;
71462;SDS011;59266;52.608;13.260;2022-11-03T03:49:37;12.52;;;3.50;;
71462;SDS011;59266;52.608;13.260;2022-11-03T03:52:03;13.05;;;3.28;;
71462;SDS011;59266;52.608;13.260;2022-11-03T03:54:30;15.07;;;3.90;;
71462;SDS011;59266;52.608;13.260;2022-11-03T03:57:00;13.75;;;3.50;;
71462;SDS011;59266;52.608;13.260;2022-11-03T03:59:29;12.98;;;3.42;;
71462;SDS011;59266;52.608;13.260;2022-11-03T04:01:56;14.32;;;3.47;;
71462;SDS011;59266;52.608;13.260;2022-11-03T04:04:23;11.68;;;3.55;;
71462;SDS011;59266;52.608;13.260;2022-11-03T04:06:49;13.43;;;3.80;;
71462;SDS011;59266;52.608;13.260;2022-11-03T04:09:35;13.77;;;3.20;;
71462;SDS011;59266;52.608;13.260;2022-11-03T04:12:02;11.35;;;3.40;;
71462;SDS011;59266;52.608;13.260;2022-11-03T04:14:47;15.43;;;3.53;;
71462;SDS011;59266;52.608;13.260;2022-11-03T04:17:32;14.50;;;4.05;;
71462;SDS011;59266;52.608;13.260;2022-11-03T04:20:17;11.75;;;3.45;;
71462;SDS011;59266;52.608;13.260;2022-11-03T04:23:02;11.70;;;3.90;;
71462;SDS011;59266;52.608;13.260;2022-11-03T04:25:29;18.63;;;3.40;;
71462;SDS011;59266;52.608;13.260;2022-11-03T04:27:55;12.20;;;3.40;;
71462;SDS011;59266;52.608;13.260;2022-11-03T04:30:22;14.70;;;3.50;;
71462;SDS011;59266;52.608;13.260;2022-11-03T04:32:50;15.95;;;3.42;;
71462;SDS011;59266;52.608;13.260;2022-11-03T04:35:21;15.57;;;3.35;;
71462;SDS011;59266;52.608;13.260;2022-11-03T04:37:50;16.85;;;3.25;;
71462;SDS011;59266;52.608;13.260;2022-11-03T04:40:22;9.85;;;3.22;;
71462;SDS011;59266;52.608;13.260;2022-11-03T04:42:49;11.48;;;3.50;;
71462;SDS011;59266;52.608;13.260;2022-11-03T04:45:19;10.25;;;3.28;;
71462;SDS011;59266;52.608;13.260;2022-11-03T04:47:51;14.90;;;3.22;;
71462;SDS011;59266;52.608;13.260;2022-11-03T04:50:18;15.10;;;3.63;;
71462;SDS011;59266;52.608;13.260;2022-11-03T04:52:46;10.82;;;3.15;;
71462;SDS011;59266;52.608;13.260;2022-11-03T04:55:14;12.40;;;3.70;;
71462;SDS011;59266;52.608;13.260;2022-11-03T04:57:43;12.55;;;3.67;;
71462;SDS011;59266;52.608;13.260;2022-11-03T05:00:16;13.63;;;3.53;;
71462;SDS011;59266;52.608;13.260;2022-11-03T05:02:46;10.00;;;2.83;;
71462;SDS011;59266;52.608;13.260;2022-11-03T05:05:21;10.73;;;3.53;;
71462;SDS011;59266;52.608;13.260;2022-11-03T05:07:53;9.65;;;3.08;;
71462;SDS011;59266;52.608;13.260;2022-11-03T05:10:23;9.70;;;3.08;;
71462;SDS011;59266;52.608;13.260;2022-11-03T05:12:55;13.32;;;3.30;;
71462;SDS011;59266;52.608;13.260;2022-11-03T05:15:26;12.52;;;3.42;;
71462;SDS011;59266;52.608;13.260;2022-11-03T05:17:55;11.73;;;3.65;;
71462;SDS011;59266;52.608;13.260;2022-11-03T05:20:33;10.65;;;3.45;;
71462;SDS011;59266;52.608;13.260;2022-11-03T05:23:03;14.65;;;3.42;;
71462;SDS011;59266;52.608;13.260;2022-11-03T05:25:35;14.82;;;3.45;;
71462;SDS011;59266;52.608;13.260;2022-11-03T05:28:20;15.20;;;3.50;;
71462;SDS011;59266;52.608;13.260;2022-11-03T05:30:49;12.30;;;3.70;;
71462;SDS011;59266;52.608;13.260;2022-11-03T05:33:18;16.27;;;3.92;;
71462;SDS011;59266;52.608;13.260;2022-11-03T05:35:47;10.07;;;3.33;;
71462;SDS011;59266;52.608;13.260;2022-11-03T05:38:14;12.85;;;3.50;;
71462;SDS011;59266;52.608;13.260;2022-11-03T05:40:43;16.88;;;3.30;;
71462;SDS011;59266;52.608;13.260;2022-11-03T05:43:11;11.70;;;3.70;;
71462;SDS011;59266;52.608;13.260;2022-11-03T05:45:39;12.55;;;3.90;;
71462;SDS011;59266;52.608;13.260;2022-11-03T05:48:15;12.57;;;3.53;;
71462;SDS011;59266;52.608;13.260;2022-11-03T05:50:47;11.32;;;3.33;;
71462;SDS011;59266;52.608;13.260;2022-11-03T05:53:30;9.07;;;3.05;;
71462;SDS011;59266;52.608;13.260;2022-11-03T05:56:01;17.30;;;3.28;;
71462;SDS011;59266;52.608;13.260;2022-11-03T05:58:32;16.33;;;3.67;;
71462;SDS011;59266;52.608;13.260;2022-11-03T06:01:02;14.35;;;3.45;;
71462;SDS011;59266;52.608;13.260;2022-11-03T06:03:35;10.95;;;3.13;;
71462;SDS011;59266;52.608;13.260;2022-11-03T06:06:01;13.05;;;3.50;;
71462;SDS011;59266;52.608;13.260;2022-11-03T06:08:37;12.63;;;2.88;;
71462;SDS011;59266;52.608;13.260;2022-11-03T06:11:14;10.35;;;3.08;;
71462;SDS011;59266;52.608;13.260;2022-11-03T06:13:50;15.05;;;3.75;;
71462;SDS011;59266;52.608;13.260;2022-11-03T06:16:36;16.20;;;3.95;;
71462;SDS011;59266;52.608;13.260;2022-11-03T06:21:47;12.68;;;3.55;;
71462;SDS011;59266;52.608;13.260;2022-11-03T06:24:14;9.85;;;3.75;;
71462;SDS011;59266;52.608;13.260;2022-11-03T06:26:42;15.07;;;3.30;;
71462;SDS011;59266;52.608;13.260;2022-11-03T06:29:13;10.27;;;3.38;;
71462;SDS011;59266;52.608;13.260;2022-11-03T06:31:41;11.80;;;3.75;;
71462;SDS011;59266;52.608;13.260;2022-11-03T06:37:30;11.85;;;3.10;;
71462;SDS011;59266;52.608;13.260;2022-11-03T06:39:58;13.55;;;3.78;;
71462;SDS011;59266;52.608;13.260;2022-11-03T06:42:34;10.98;;;3.85;;
71462;SDS011;59266;52.608;13.260;2022-11-03T06:45:01;12.77;;;4.10;;
71462;SDS011;59266;52.608;13.260;2022-11-03T06:47:39;13.70;;;3.95;;
71462;SDS011;59266;52.608;13.260;2022-11-03T06:50:17;10.88;;;3.58;;
71462;SDS011;59266;52.608;13.260;2022-11-03T06:52:47;15.77;;;3.88;;
71462;SDS011;59266;52.608;13.260;2022-11-03T06:55:26;11.52;;;4.00;;
71462;SDS011;59266;52.608;13.260;2022-11-03T06:57:58;13.73;;;3.80;;
71462;SDS011;59266;52.608;13.260;2022-11-03T07:00:28;12.70;;;3.80;;
71462;SDS011;59266;52.608;13.260;2022-11-03T07:03:09;12.90;;;4.55;;
71462;SDS011;59266;52.608;13.260;2022-11-03T07:05:43;14.18;;;3.92;;
71462;SDS011;59266;52.608;13.260;2022-11-03T07:08:18;13.07;;;4.22;;
71462;SDS011;59266;52.608;13.260;2022-11-03T07:10:49;13.77;;;3.80;;
71462;SDS011;59266;52.608;13.260;2022-11-03T07:13:18;15.50;;;4.30;;
71462;SDS011;59266;52.608;13.260;2022-11-03T07:15:47;21.42;;;4.57;;
71462;SDS011;59266;52.608;13.260;2022-11-03T07:18:27;14.25;;;4.00;;
71462;SDS011;59266;52.608;13.260;2022-11-03T07:21:03;13.68;;;4.25;;
71462;SDS011;59266;52.608;13.260;2022-11-03T07:23:31;18.63;;;4.82;;
71462;SDS011;59266;52.608;13.260;2022-11-03T07:25:59;15.32;;;4.57;;
71462;SDS011;59266;52.608;13.260;2022-11-03T07:28:34;14.00;;;4.75;;
71462;SDS011;59266;52.608;13.260;2022-11-03T07:31:12;11.60;;;4.60;;
71462;SDS011;59266;52.608;13.260;2022-11-03T07:33:54;16.55;;;4.70;;
71462;SDS011;59266;52.608;13.260;2022-11-03T07:36:23;15.93;;;4.68;;
71462;SDS011;59266;52.608;13.260;2022-11-03T07:38:53;13.88;;;4.60;;
71462;SDS011;59266;52.608;13.260;2022-11-03T07:41:23;16.08;;;6.57;;
71462;SDS011;59266;52.608;13.260;2022-11-03T07:43:59;20.13;;;5.28;;
71462;SDS011;59266;52.608;13.260;2022-11-03T07:46:27;10.88;;;4.05;;
71462;SDS011;59266;52.608;13.260;2022-11-03T07:48:57;14.63;;;3.50;;
71462;SDS011;59266;52.608;13.260;2022-11-03T07:51:30;11.10;;;3.67;;
71462;SDS011;59266;52.608;13.260;2022-11-03T07:56:37;11.40;;;3.63;;
71462;SDS011;59266;52.608;13.260;2022-11-03T08:01:39;12.73;;;3.85;;
71462;SDS011;59266;52.608;13.260;2022-11-03T08:04:11;11.00;;;3.70;;
71462;SDS011;59266;52.608;13.260;2022-11-03T08:06:42;14.73;;;3.85;;
71462;SDS011;59266;52.608;13.260;2022-11-03T08:09:09;15.20;;;3.92;;
71462;SDS011;59266;52.608;13.260;2022-11-03T08:11:35;15.25;;;3.88;;
71462;SDS011;59266;52.608;13.260;2022-11-03T08:14:02;10.98;;;3.53;;
71462;SDS011;59266;52.608;13.260;2022-11-03T08:16:29;12.52;;;3.67;;
71462;SDS011;59266;52.608;13.260;2022-11-03T08:18:55;14.40;;;3.33;;
71462;SDS011;59266;52.608;13.260;2022-11-03T08:21:22;11.65;;;3.30;;
71462;SDS011;59266;52.608;13.260;2022-11-03T08:23:49;23.48;;;3.55;;
71462;SDS011;59266;52.608;13.260;2022-11-03T08:26:16;11.15;;;3.15;;
71462;SDS011;59266;52.608;13.260;2022-11-03T08:28:42;10.70;;;2.92;;
71462;SDS011;59266;52.608;13.260;2022-11-03T08:31:08;10.15;;;3.17;;
71462;SDS011;59266;52.608;13.260;2022-11-03T08:33:38;12.75;;;2.97;;
71462;SDS011;59266;52.608;13.260;2022-11-03T08:36:05;11.50;;;2.80;;
71462;SDS011;59266;52.608;13.260;2022-11-03T08:38:33;10.85;;;3.33;;
71462;SDS011;59266;52.608;13.260;2022-11-03T08:41:00;9.77;;;3.40;;
71462;SDS011;59266;52.608;13.260;2022-11-03T08:43:27;9.80;;;2.88;;
71462;SDS011;59266;52.608;13.260;2022-11-03T08:45:54;12.73;;;3.25;;
71462;SDS011;59266;52.608;13.260;2022-11-03T08:48:20;13.25;;;3.10;;
71462;SDS011;59266;52.608;13.260;2022-11-03T08:50:48;12.43;;;3.33;;
71462;SDS011;59266;52.608;13.260;2022-11-03T08:53:20;8.05;;;3.00;;
71462;SDS011;59266;52.608;13.260;2022-11-03T08:55:47;10.05;;;2.80;;
71462;SDS011;59266;52.608;13.260;2022-11-03T08:58:14;11.88;;;2.80;;
71462;SDS011;59266;52.608;13.260;2022-11-03T09:00:41;14.75;;;3.35;;
71462;SDS011;59266;52.608;13.260;2022-11-03T09:03:07;8.18;;;2.95;;
71462;SDS011;59266;52.608;13.260;2022-11-03T09:05:34;11.00;;;3.33;;
71462;SDS011;59266;52.608;13.260;2022-11-03T09:08:01;11.77;;;2.50;;
71462;SDS011;59266;52.608;13.260;2022-11-03T09:10:47;11.18;;;2.80;;
71462;SDS011;59266;52.608;13.260;2022-11-03T09:13:14;11.27;;;2.70;;
71462;SDS011;59266;52.608;13.260;2022-11-03T09:15:40;7.68;;;2.42;;
71462;SDS011;59266;52.608;13.260;2022-11-03T09:18:07;7.30;;;2.53;;
71462;SDS011;59266;52.608;13.260;2022-11-03T09:20:34;9.38;;;2.75;;
71462;SDS011;59266;52.608;13.260;2022-11-03T09:23:01;7.50;;;2.60;;
71462;SDS011;59266;52.608;13.260;2022-11-03T09:25:27;8.40;;;2.80;;
71462;SDS011;59266;52.608;13.260;2022-11-03T09:27:54;14.65;;;2.88;;
71462;SDS011;59266;52.608;13.260;2022-11-03T09:30:20;11.50;;;3.05;;
71462;SDS011;59266;52.608;13.260;2022-11-03T09:32:47;17.58;;;2.97;;
71462;SDS011;59266;52.608;13.260;2022-11-03T09:35:13;8.05;;;2.50;;
71462;SDS011;59266;52.608;13.260;2022-11-03T09:37:40;13.63;;;2.45;;
71462;SDS011;59266;52.608;13.260;2022-11-03T09:40:07;11.10;;;2.40;;
71462;SDS011;59266;52.608;13.260;2022-11-03T09:42:35;9.57;;;2.20;;
71462;SDS011;59266;52.608;13.260;2022-11-03T09:45:02;11.48;;;2.47;;
71462;SDS011;59266;52.608;13.260;2022-11-03T09:47:31;10.00;;;2.42;;
71462;SDS011;59266;52.608;13.260;2022-11-03T09:50:00;11.23;;;2.30;;
71462;SDS011;59266;52.608;13.260;2022-11-03T09:52:27;11.75;;;2.67;;
71462;SDS011;59266;52.608;13.260;2022-11-03T09:54:54;9.25;;;2.20;;
71462;SDS011;59266;52.608;13.260;2022-11-03T09:57:21;7.35;;;2.33;;
71462;SDS011;59266;52.608;13.260;2022-11-03T09:59:48;10.00;;;2.97;;
71462;SDS011;59266;52.608;13.260;2022-11-03T10:02:34;9.68;;;1.98;;
71462;SDS011;59266;52.608;13.260;2022-11-03T10:05:02;10.52;;;2.40;;
71462;SDS011;59266;52.608;13.260;2022-11-03T10:07:36;8.30;;;2.35;;
71462;SDS011;59266;52.608;13.260;2022-11-03T10:10:02;10.27;;;2.22;;
71462;SDS011;59266;52.608;13.260;2022-11-03T10:12:30;10.00;;;1.83;;
71462;SDS011;59266;52.608;13.260;2022-11-03T10:15:01;7.07;;;2.05;;
71462;SDS011;59266;52.608;13.260;2022-11-03T10:17:28;9.32;;;2.00;;
71462;SDS011;59266;52.608;13.260;2022-11-03T10:19:55;7.53;;;1.90;;
71462;SDS011;59266;52.608;13.260;2022-11-03T10:22:23;8.73;;;1.88;;
71462;SDS011;59266;52.608;13.260;2022-11-03T10:24:51;7.90;;;2.10;;
71462;SDS011;59266;52.608;13.260;2022-11-03T10:33:41;10.13;;;2.13;;
71462;SDS011;59266;52.608;13.260;2022-11-03T10:38:43;9.30;;;2.25;;
71462;SDS011;59266;52.608;13.260;2022-11-03T10:43:54;10.65;;;2.05;;
71462;SDS011;59266;52.608;13.260;2022-11-03T10:46:25;10.52;;;2.10;;
71462;SDS011;59266;52.608;13.260;2022-11-03T10:49:13;7.50;;;1.80;;
71462;SDS011;59266;52.608;13.260;2022-11-03T10:51:42;9.73;;;1.80;;
71462;SDS011;59266;52.608;13.260;2022-11-03T10:54:13;7.72;;;1.73;;
71462;SDS011;59266;52.608;13.260;2022-11-03T10:56:41;12.07;;;1.98;;
71462;SDS011;59266;52.608;13.260;2022-11-03T10:59:25;9.38;;;2.00;;
71462;SDS011;59266;52.608;13.260;2022-11-03T11:01:57;8.70;;;1.90;;
71462;SDS011;59266;52.608;13.260;2022-11-03T11:04:25;8.20;;;1.77;;
71462;SDS011;59266;52.608;13.260;2022-11-03T11:06:52;8.15;;;1.90;;
71462;SDS011;59266;52.608;13.260;2022-11-03T11:09:22;8.13;;;2.15;;
71462;SDS011;59266;52.608;13.260;2022-11-03T11:17:00;9.18;;;2.05;;
71462;SDS011;59266;52.608;13.260;2022-11-03T11:19:27;9.13;;;1.85;;
71462;SDS011;59266;52.608;13.260;2022-11-03T11:30:00;9.50;;;1.90;;
71462;SDS011;59266;52.608;13.260;2022-11-03T11:35:01;7.88;;;1.70;;
71462;SDS011;59266;52.608;13.260;2022-11-03T11:37:30;9.38;;;1.90;;
71462;SDS011;59266;52.608;13.260;2022-11-03T11:39:58;7.07;;;1.95;;
71462;SDS011;59266;52.608;13.260;2022-11-03T11:42:25;7.88;;;2.20;;
71462;SDS011;59266;52.608;13.260;2022-11-03T11:44:52;9.77;;;2.53;;
71462;SDS011;59266;52.608;13.260;2022-11-03T11:47:32;13.35;;;2.38;;
71462;SDS011;59266;52.608;13.260;2022-11-03T11:50:22;13.90;;;2.00;;
71462;SDS011;59266;52.608;13.260;2022-11-03T11:52:57;11.05;;;2.08;;
71462;SDS011;59266;52.608;13.260;2022-11-03T11:55:29;7.50;;;1.90;;
71462;SDS011;59266;52.608;13.260;2022-11-03T11:58:11;11.25;;;2.60;;
71462;SDS011;59266;52.608;13.260;2022-11-03T12:03:56;11.10;;;1.95;;
71462;SDS011;59266;52.608;13.260;2022-11-03T12:06:38;16.20;;;2.38;;
71462;SDS011;59266;52.608;13.260;2022-11-03T12:11:39;7.40;;;1.75;;
71462;SDS011;59266;52.608;13.260;2022-11-03T12:14:21;6.72;;;1.90;;
71462;SDS011;59266;52.608;13.260;2022-11-03T12:16:49;8.85;;;2.28;;
71462;SDS011;59266;52.608;13.260;2022-11-03T12:22:02;9.48;;;2.22;;
71462;SDS011;59266;52.608;13.260;2022-11-03T12:26:57;9.90;;;2.00;;
71462;SDS011;59266;52.608;13.260;2022-11-03T12:29:24;8.43;;;1.98;;
71462;SDS011;59266;52.608;13.260;2022-11-03T12:31:51;10.20;;;2.17;;
71462;SDS011;59266;52.608;13.260;2022-11-03T12:34:18;7.15;;;1.67;;
71462;SDS011;59266;52.608;13.260;2022-11-03T12:36:45;9.07;;;2.13;;
71462;SDS011;59266;52.608;13.260;2022-11-03T12:39:16;10.27;;;2.00;;
71462;SDS011;59266;52.608;13.260;2022-11-03T12:41:43;9.32;;;2.00;;
71462;SDS011;59266;52.608;13.260;2022-11-03T12:44:10;8.15;;;2.03;;
71462;SDS011;59266;52.608;13.260;2022-11-03T12:46:36;10.15;;;2.60;;
71462;SDS011;59266;52.608;13.260;2022-11-03T12:49:03;10.40;;;2.17;;
71462;SDS011;59266;52.608;13.260;2022-11-03T12:51:29;9.20;;;2.40;;
71462;SDS011;59266;52.608;13.260;2022-11-03T12:53:56;9.55;;;2.10;;
71462;SDS011;59266;52.608;13.260;2022-11-03T12:56:22;10.38;;;2.13;;
71462;SDS011;59266;52.608;13.260;2022-11-03T12:58:49;10.13;;;2.08;;
71462;SDS011;59266;52.608;13.260;2022-11-03T13:01:15;10.93;;;3.55;;
71462;SDS011;59266;52.608;13.260;2022-11-03T13:03:42;7.65;;;1.80;;
71462;SDS011;59266;52.608;13.260;2022-11-03T13:06:08;8.98;;;2.13;;
71462;SDS011;59266;52.608;13.260;2022-11-03T13:08:36;7.30;;;1.85;;
71462;SDS011;59266;52.608;13.260;2022-11-03T13:11:03;8.77;;;2.38;;
71462;SDS011;59266;52.608;13.260;2022-11-03T13:13:50;9.75;;;2.05;;
71462;SDS011;59266;52.608;13.260;2022-11-03T13:16:17;8.35;;;1.98;;
71462;SDS011;59266;52.608;13.260;2022-11-03T13:18:43;7.30;;;2.10;;
71462;SDS011;59266;52.608;13.260;2022-11-03T13:21:09;7.65;;;1.90;;
71462;SDS011;59266;52.608;13.260;2022-11-03T13:23:36;10.23;;;2.10;;
71462;SDS011;59266;52.608;13.260;2022-11-03T13:26:02;13.27;;;2.38;;
71462;SDS011;59266;52.608;13.260;2022-11-03T13:28:29;12.88;;;2.40;;
71462;SDS011;59266;52.608;13.260;2022-11-03T13:30:56;9.02;;;2.08;;
71462;SDS011;59266;52.608;13.260;2022-11-03T13:33:22;10.85;;;2.00;;
71462;SDS011;59266;52.608;13.260;2022-11-03T13:35:49;7.30;;;1.95;;
71462;SDS011;59266;52.608;13.260;2022-11-03T13:38:15;9.43;;;2.00;;
71462;SDS011;59266;52.608;13.260;2022-11-03T13:40:42;9.23;;;2.08;;
71462;SDS011;59266;52.608;13.260;2022-11-03T13:43:23;10.20;;;2.10;;
71462;SDS011;59266;52.608;13.260;2022-11-03T13:45:49;14.77;;;2.40;;
71462;SDS011;59266;52.608;13.260;2022-11-03T13:48:17;11.02;;;2.03;;
71462;SDS011;59266;52.608;13.260;2022-11-03T13:51:04;7.82;;;1.90;;
71462;SDS011;59266;52.608;13.260;2022-11-03T13:53:30;10.05;;;2.03;;
71462;SDS011;59266;52.608;13.260;2022-11-03T13:56:17;9.57;;;2.20;;
71462;SDS011;59266;52.608;13.260;2022-11-03T13:58:47;8.75;;;2.40;;
71462;SDS011;59266;52.608;13.260;2022-11-03T14:01:34;10.68;;;2.28;;
71462;SDS011;59266;52.608;13.260;2022-11-03T14:04:01;7.70;;;2.33;;
71462;SDS011;59266;52.608;13.260;2022-11-03T14:06:48;12.00;;;2.47;;
71462;SDS011;59266;52.608;13.260;2022-11-03T14:09:15;11.75;;;2.50;;
71462;SDS011;59266;52.608;13.260;2022-11-03T14:11:43;8.00;;;2.75;;
71462;SDS011;59266;52.608;13.260;2022-11-03T14:14:28;9.35;;;2.47;;
71462;SDS011;59266;52.608;13.260;2022-11-03T14:16:55;13.90;;;2.75;;
71462;SDS011;59266;52.608;13.260;2022-11-03T14:19:21;9.07;;;2.20;;
71462;SDS011;59266;52.608;13.260;2022-11-03T14:22:00;9.05;;;2.42;;
71462;SDS011;59266;52.608;13.260;2022-11-03T14:24:27;11.82;;;2.20;;
71462;SDS011;59266;52.608;13.260;2022-11-03T14:26:53;9.23;;;2.58;;
71462;SDS011;59266;52.608;13.260;2022-11-03T14:29:20;10.73;;;2.17;;
71462;SDS011;59266;52.608;13.260;2022-11-03T14:31:46;10.68;;;2.58;;
71462;SDS011;59266;52.608;13.260;2022-11-03T14:34:13;14.32;;;2.90;;
71462;SDS011;59266;52.608;13.260;2022-11-03T14:36:39;10.25;;;2.20;;
71462;SDS011;59266;52.608;13.260;2022-11-03T14:39:06;9.77;;;2.85;;
71462;SDS011;59266;52.608;13.260;2022-11-03T14:41:32;9.70;;;2.65;;
71462;SDS011;59266;52.608;13.260;2022-11-03T14:44:21;12.02;;;2.30;;
71462;SDS011;59266;52.608;13.260;2022-11-03T14:46:48;9.90;;;2.25;;
71462;SDS011;59266;52.608;13.260;2022-11-03T14:49:14;14.88;;;2.53;;
71462;SDS011;59266;52.608;13.260;2022-11-03T14:51:41;9.68;;;2.47;;
71462;SDS011;59266;52.608;13.260;2022-11-03T14:54:08;14.98;;;2.78;;
71462;SDS011;59266;52.608;13.260;2022-11-03T14:56:34;8.32;;;2.63;;
71462;SDS011;59266;52.608;13.260;2022-11-03T14:59:01;11.32;;;2.72;;
71462;SDS011;59266;52.608;13.260;2022-11-03T15:01:27;11.43;;;3.00;;
71462;SDS011;59266;52.608;13.260;2022-11-03T15:03:54;9.50;;;2.53;;
71462;SDS011;59266;52.608;13.260;2022-11-03T15:06:20;11.15;;;2.55;;
71462;SDS011;59266;52.608;13.260;2022-11-03T15:08:47;11.13;;;3.00;;
71462;SDS011;59266;52.608;13.260;2022-11-03T15:11:21;10.32;;;2.40;;
71462;SDS011;59266;52.608;13.260;2022-11-03T15:13:47;11.30;;;2.70;;
71462;SDS011;59266;52.608;13.260;2022-11-03T15:16:17;12.25;;;3.63;;
71462;SDS011;59266;52.608;13.260;2022-11-03T15:18:44;9.70;;;3.45;;
71462;SDS011;59266;52.608;13.260;2022-11-03T15:21:10;12.48;;;3.38;;
71462;SDS011;59266;52.608;13.260;2022-11-03T15:23:37;10.75;;;3.08;;
71462;SDS011;59266;52.608;13.260;2022-11-03T15:26:23;12.55;;;2.95;;
71462;SDS011;59266;52.608;13.260;2022-11-03T15:28:50;10.85;;;2.47;;
71462;SDS011;59266;52.608;13.260;2022-11-03T15:31:16;9.63;;;2.80;;
71462;SDS011;59266;52.608;13.260;2022-11-03T15:33:43;10.48;;;2.50;;
71462;SDS011;59266;52.608;13.260;2022-11-03T15:36:09;14.60;;;3.10;;
71462;SDS011;59266;52.608;13.260;2022-11-03T15:38:37;8.05;;;2.53;;
71462;SDS011;59266;52.608;13.260;2022-11-03T15:41:03;13.45;;;3.03;;
71462;SDS011;59266;52.608;13.260;2022-11-03T15:43:42;12.23;;;2.70;;
71462;SDS011;59266;52.608;13.260;2022-11-03T15:46:10;13.25;;;2.65;;
71462;SDS011;59266;52.608;13.260;2022-11-03T15:48:37;9.45;;;2.72;;
71462;SDS011;59266;52.608;13.260;2022-11-03T15:51:04;9.98;;;3.40;;
71462;SDS011;59266;52.608;13.260;2022-11-03T15:53:30;10.88;;;2.95;;